Time;durP1;ratioP1;P1;durP2;ratioP2;P2;SDS_P1;SDS_P2;PMS_P1;PMS_P2;Temp;Humidity;BMP_temperature;BMP_pressure;BME280_temperature;BME280_humidity;BME280_pressure;Samples;Min_cycle;Max_cycle;Signal;HPM_P1;HPM_P2
2022/06/25 00:00:24;;;;;;;70.77;66.97;;;;;;;15.72;100.00;96461.38;5072968;28;20193;-68
2022/06/25 00:02:49;;;;;;;63.60;60.13;;;;;;;15.61;100.00;96466.94;5072956;28;20509;-69
2022/06/25 00:05:32;;;;;;;65.37;61.73;;;;;;;15.59;100.00;96464.59;5061219;28;20239;-68
2022/06/25 00:07:58;;;;;;;64.73;61.33;;;;;;;15.68;100.00;96456.91;5073525;28;20698;-66
2022/06/25 00:10:24;;;;;;;60.97;57.80;;;;;;;15.66;100.00;96461.69;5073273;28;20213;-68
2022/06/25 00:12:50;;;;;;;60.03;56.83;;;;;;;15.61;100.00;96472.22;5072855;28;20527;-68
2022/06/25 00:15:15;;;;;;;57.43;54.43;;;;;;;15.79;100.00;96472.47;5073351;28;20189;-67
2022/06/25 00:17:41;;;;;;;56.07;53.13;;;;;;;15.66;100.00;96464.31;5072922;28;20188;-68
2022/06/25 00:20:08;;;;;;;55.83;52.90;;;;;;;15.65;100.00;96468.81;5073039;28;20193;-68
2022/06/25 00:22:33;;;;;;;58.90;55.80;;;;;;;15.52;100.00;96476.47;5072572;28;20200;-70
2022/06/25 00:24:59;;;;;;;62.87;59.57;;;;;;;15.57;100.00;96476.47;5072865;28;20185;-67
2022/06/25 00:27:24;;;;;;;64.13;60.53;;;;;;;15.40;100.00;96471.41;5073109;28;20239;-67
2022/06/25 00:29:50;;;;;;;72.17;68.40;;;;;;;15.43;100.00;96465.63;5073269;28;20231;-67
2022/06/25 00:32:16;;;;;;;78.67;74.37;;;;;;;15.51;100.00;96469.56;5072808;28;20174;-67
2022/06/25 00:34:41;;;;;;;85.17;80.67;;;;;;;15.55;100.00;96470.66;5072988;28;20260;-67
2022/06/25 00:37:07;;;;;;;81.57;77.17;;;;;;;15.66;100.00;96470.38;5073258;28;20211;-67
2022/06/25 00:39:34;;;;;;;71.97;68.10;;;;;;;15.65;100.00;96471.44;5072349;28;20227;-68
2022/06/25 00:41:59;;;;;;;72.40;68.50;;;;;;;15.66;100.00;96472.25;5062606;28;20674;-67
2022/06/25 00:44:28;;;;;;;77.83;73.67;;;;;;;15.58;100.00;96476.22;5072781;28;20220;-69
2022/06/25 00:46:53;;;;;;;78.97;74.70;;;;;;;15.53;100.00;96475.41;5072416;28;20186;-67
2022/06/25 00:49:18;;;;;;;81.03;76.83;;;;;;;15.57;100.00;96473.81;5072838;28;20669;-67
2022/06/25 00:51:47;;;;;;;83.17;78.37;;;;;;;15.56;100.00;96477.50;5072549;28;20497;-68
2022/06/25 00:54:14;;;;;;;89.57;84.83;;;;;;;15.49;100.00;96477.75;5071971;28;20189;-67
2022/06/25 00:56:49;;;;;;;81.43;77.13;;;;;;;15.39;100.00;96475.91;5072359;28;20252;-68
2022/06/25 00:59:24;;;;;;;83.03;78.63;;;;;;;15.38;100.00;96478.81;5072471;28;20247;-67
2022/06/25 01:01:49;;;;;;;80.03;75.73;;;;;;;15.43;100.00;96478.84;5072461;28;20180;-68
2022/06/25 01:04:15;;;;;;;89.17;84.30;;;;;;;15.24;100.00;96477.75;5070414;28;20235;-68
2022/06/25 01:06:40;;;;;;;84.27;79.73;;;;;;;15.21;100.00;96480.94;5071853;28;20192;-69
2022/06/25 01:09:05;;;;;;;84.70;80.30;;;;;;;15.16;100.00;96479.06;5072558;28;20192;-66
2022/06/25 01:11:31;;;;;;;90.43;85.63;;;;;;;15.13;100.00;96481.44;5072501;28;20192;-67
2022/06/25 01:13:56;;;;;;;92.77;87.73;;;;;;;15.17;100.00;96483.28;5072480;28;20220;-68
2022/06/25 01:16:22;;;;;;;93.43;88.57;;;;;;;15.19;100.00;96478.56;5072466;28;20181;-68
2022/06/25 01:18:48;;;;;;;91.90;87.00;;;;;;;15.15;100.00;96489.91;5072551;28;20185;-68
2022/06/25 01:21:14;;;;;;;96.43;91.43;;;;;;;15.23;100.00;96484.09;5072348;28;20642;-68
2022/06/25 01:23:40;;;;;;;94.30;89.37;;;;;;;15.30;100.00;96485.44;5071440;28;20193;-68
2022/06/25 01:26:06;;;;;;;86.77;82.20;;;;;;;15.34;100.00;96485.69;5072756;28;20269;-68
2022/06/25 01:28:32;;;;;;;90.10;85.33;;;;;;;15.33;100.00;96484.88;5072556;28;20629;-68
2022/06/25 01:30:57;;;;;;;95.80;90.90;;;;;;;15.19;100.00;96497.03;5072114;28;21993;-68
2022/06/25 01:33:22;;;;;;;93.83;88.90;;;;;;;15.25;100.00;96498.63;5072336;28;20184;-67
2022/06/25 01:35:48;;;;;;;93.70;88.63;;;;;;;15.18;100.00;96487.53;5072353;28;20549;-68
2022/06/25 01:38:14;;;;;;;97.83;92.70;;;;;;;15.18;100.00;96495.44;5071657;28;20184;-68
2022/06/25 01:40:39;;;;;;;95.57;90.40;;;;;;;15.18;100.00;96497.28;5070775;28;20185;-68
2022/06/25 01:43:05;;;;;;;96.70;91.60;;;;;;;15.19;100.00;96491.75;5072159;28;20326;-68
2022/06/25 01:45:36;;;;;;;102.27;96.70;;;;;;;15.12;100.00;96493.06;5072112;28;20181;-68
2022/06/25 01:48:03;;;;;;;102.40;96.97;;;;;;;15.17;100.00;96499.13;5071777;28;20181;-67
2022/06/25 01:50:29;;;;;;;102.37;96.93;;;;;;;15.16;100.00;96494.09;5072648;28;20272;-68
2022/06/25 01:52:55;;;;;;;100.17;94.93;;;;;;;15.14;100.00;96494.38;5072008;28;20720;-69
2022/06/25 01:55:21;;;;;;;97.23;92.17;;;;;;;15.14;100.00;96493.59;5071582;28;20269;-68
2022/06/25 01:57:48;;;;;;;98.53;93.33;;;;;;;15.14;100.00;96498.88;5072134;28;20676;-67
2022/06/25 02:00:16;;;;;;;112.50;106.70;;;;;;;15.07;100.00;96508.88;5071791;28;20188;-67
2022/06/25 02:02:42;;;;;;;103.13;97.63;;;;;;;15.13;100.00;96506.00;5069405;28;20197;-68
2022/06/25 02:05:09;;;;;;;105.47;99.90;;;;;;;14.96;100.00;96500.16;5072266;28;20721;-68
2022/06/25 02:07:34;;;;;;;109.00;103.20;;;;;;;14.92;100.00;96497.25;5071909;28;20262;-67
2022/06/25 02:10:00;;;;;;;101.73;96.23;;;;;;;15.03;100.00;96499.91;5054009;28;20260;-67
2022/06/25 02:12:25;;;;;;;105.50;99.93;;;;;;;15.12;100.00;96493.84;5071625;28;20209;-68
2022/06/25 02:14:51;;;;;;;95.53;90.43;;;;;;;15.02;100.00;96504.41;5071790;28;20185;-68
2022/06/25 02:17:16;;;;;;;95.87;90.93;;;;;;;15.02;100.00;96506.25;5071615;28;20181;-67
2022/06/25 02:19:42;;;;;;;98.53;93.13;;;;;;;15.07;100.00;96501.75;5071956;28;20232;-68
2022/06/25 02:22:07;;;;;;;89.60;84.93;;;;;;;15.05;100.00;96510.97;5053797;28;20205;-68
2022/06/25 02:24:33;;;;;;;88.30;83.70;;;;;;;14.87;100.00;96515.72;5071320;28;20264;-68
2022/06/25 02:26:58;;;;;;;81.40;77.00;;;;;;;15.00;100.00;96517.03;5071938;28;20209;-68
2022/06/25 02:29:24;;;;;;;82.50;78.23;;;;;;;15.04;100.00;96515.50;5073883;28;20189;-68
2022/06/25 02:31:50;;;;;;;79.87;75.73;;;;;;;14.88;100.00;96522.56;5075126;28;20223;-68
2022/06/25 02:34:15;;;;;;;77.93;73.67;;;;;;;14.84;100.00;96520.72;5075693;28;20584;-68
2022/06/25 02:36:41;;;;;;;70.03;66.17;;;;;;;14.94;100.00;96518.88;5074990;28;20649;-70
2022/06/25 02:39:06;;;;;;;76.47;72.40;;;;;;;14.81;100.00;96531.78;5074539;28;20278;-67
2022/06/25 02:41:31;;;;;;;76.63;72.57;;;;;;;14.83;100.00;96532.31;5054874;28;20185;-68
2022/06/25 02:43:57;;;;;;;77.07;72.60;;;;;;;14.84;100.00;96526.78;5074764;28;20617;-67
2022/06/25 02:46:22;;;;;;;69.57;65.87;;;;;;;14.89;100.00;96515.44;5075385;28;20185;-68
2022/06/25 02:48:47;;;;;;;77.70;73.53;;;;;;;14.84;100.00;96520.72;5074591;28;20201;-68
2022/06/25 02:51:13;;;;;;;80.80;76.50;;;;;;;14.75;100.00;96519.63;5057291;28;20189;-67
2022/06/25 02:53:38;;;;;;;82.47;77.97;;;;;;;14.91;100.00;96518.63;5074885;28;20189;-68
2022/06/25 02:58:55;;;;;;;88.30;83.73;;;;;;;14.84;100.00;96524.13;5073306;28;20277;-68
2022/06/25 03:01:22;;;;;;;82.60;78.03;;;;;;;14.62;100.00;96520.09;5074947;28;20169;-68
2022/06/25 03:03:47;;;;;;;95.50;90.23;;;;;;;14.80;100.00;96523.06;5055152;28;20287;-68
2022/06/25 03:06:12;;;;;;;93.90;88.87;;;;;;;14.79;100.00;96523.31;5074344;28;20185;-68
2022/06/25 03:08:38;;;;;;;90.67;85.77;;;;;;;14.70;100.00;96525.69;5074637;28;20219;-68
2022/06/25 03:11:03;;;;;;;78.73;74.43;;;;;;;14.79;100.00;96523.31;5073790;28;20189;-67
2022/06/25 03:13:31;;;;;;;76.43;72.30;;;;;;;14.73;100.00;96519.09;5074622;28;20997;-67
2022/06/25 03:15:57;;;;;;;81.23;74.03;;;;;;;14.73;100.00;96514.59;5074587;28;20269;-67
2022/06/25 03:18:22;;;;;;;66.57;62.83;;;;;;;14.67;100.00;96517.47;5074399;28;20268;-68
2022/06/25 03:20:50;;;;;;;70.67;66.63;;;;;;;14.75;100.00;96511.72;5074125;28;20224;-69
2022/06/25 03:23:15;;;;;;;72.33;68.43;;;;;;;14.70;100.00;96517.78;5074294;28;20205;-68
2022/06/25 03:25:41;;;;;;;81.37;77.20;;;;;;;14.71;100.00;96513.28;5073918;28;20231;-67
2022/06/25 03:28:06;;;;;;;87.33;82.80;;;;;;;14.73;100.00;96508.53;5073937;28;20631;-68
2022/06/25 03:30:32;;;;;;;91.17;86.27;;;;;;;14.74;100.00;96512.75;5074295;28;20181;-68
2022/06/25 03:32:57;;;;;;;104.70;99.20;;;;;;;14.72;100.00;96513.00;5073660;28;20239;-68
2022/06/25 03:35:23;;;;;;;104.00;98.63;;;;;;;14.71;100.00;96508.03;5074372;28;20252;-68
2022/06/25 03:37:48;;;;;;;100.53;95.30;;;;;;;14.69;100.00;96512.75;5073983;28;20234;-68
2022/06/25 03:40:13;;;;;;;86.93;82.37;;;;;;;14.66;100.00;96503.50;5071990;28;20303;-70
2022/06/25 03:42:39;;;;;;;91.57;86.80;;;;;;;14.66;100.00;96511.41;5073796;28;20221;-68
2022/06/25 03:45:05;;;;;;;92.50;87.37;;;;;;;14.76;100.00;96513.31;5074102;28;20185;-68
2022/06/25 03:47:30;;;;;;;92.50;87.80;;;;;;;14.69;100.00;96508.28;5073862;28;20185;-68
2022/06/25 03:49:55;;;;;;;110.87;105.17;;;;;;;14.89;100.00;96510.16;5074096;28;20193;-68
2022/06/25 03:52:21;;;;;;;106.60;101.00;;;;;;;15.28;100.00;96519.22;5073793;28;20196;-68
2022/06/25 03:54:46;;;;;;;97.77;92.57;;;;;;;15.45;100.00;96521.59;5072762;28;20190;-68
2022/06/25 03:57:12;;;;;;;122.70;116.40;;;;;;;15.64;100.00;96517.41;5073601;28;20208;-68
2022/06/25 03:59:37;;;;;;;116.83;110.70;;;;;;;15.83;100.00;96512.38;5073381;28;20212;-68
2022/06/25 04:02:03;;;;;;;104.30;98.90;;;;;;;16.18;100.00;96512.31;5068112;28;20218;-68
2022/06/25 04:04:28;;;;;;;102.03;96.63;;;;;;;16.30;100.00;96512.03;5069871;28;20268;-68
2022/06/25 04:06:53;;;;;;;113.43;107.47;;;;;;;16.38;100.00;96519.41;5074099;28;20649;-68
2022/06/25 04:09:19;;;;;;;166.53;157.90;;;;;;;16.49;98.50;96528.09;5074041;28;20250;-68
2022/06/25 04:11:44;;;;;;;173.23;164.13;;;;;;;16.87;96.94;96522.16;5073758;28;20201;-69
2022/06/25 04:14:09;;;;;;;151.50;143.50;;;;;;;16.80;96.34;96523.50;5073313;28;20212;-69
2022/06/25 04:16:35;;;;;;;267.40;252.37;;;;;;;16.78;96.32;96522.97;5073263;28;20177;-68
2022/06/25 04:19:00;;;;;;;281.93;266.27;;;;;;;17.16;94.91;96526.75;5073562;28;20279;-69
2022/06/25 04:21:27;;;;;;;259.90;245.48;;;;;;;17.33;91.51;96532.47;5073696;28;20189;-69
2022/06/25 04:23:52;;;;;;;158.13;149.37;;;;;;;18.06;88.01;96538.53;5073338;28;20584;-68
2022/06/25 04:26:18;;;;;;;152.50;144.15;;;;;;;17.54;90.03;96541.06;5073424;28;20204;-68
2022/06/25 04:31:27;;;;;;;104.67;99.07;;;;;;;18.03;86.92;96547.03;5060530;28;20185;-68
2022/06/25 04:33:53;;;;;;;154.60;146.40;;;;;;;17.88;87.48;96541.88;5073011;28;20181;-69
2022/06/25 04:36:19;;;;;;;166.63;157.70;;;;;;;18.07;87.35;96549.91;5073388;28;20193;-68
2022/06/25 04:38:44;;;;;;;198.10;187.90;;;;;;;18.52;84.33;96553.97;5072724;28;20271;-66
2022/06/25 04:41:09;;;;;;;269.98;254.77;;;;;;;19.19;81.11;96549.47;5066042;28;20189;-67
2022/06/25 04:43:35;;;;;;;423.23;397.63;;;;;;;19.29;81.00;96563.41;5055202;28;20603;-67
2022/06/25 04:46:00;;;;;;;362.00;340.40;;;;;;;19.42;79.07;96556.56;5072964;28;20185;-67
2022/06/25 04:48:25;;;;;;;312.30;293.70;;;;;;;18.72;81.79;96559.09;5072786;28;20599;-67
2022/06/25 04:50:51;;;;;;;308.75;290.30;;;;;;;19.29;79.29;96568.72;5072195;28;20197;-69
2022/06/25 04:53:16;;;;;;;255.85;240.48;;;;;;;19.12;79.40;96568.41;5073222;28;20700;-68
2022/06/25 04:55:42;;;;;;;172.63;162.25;;;;;;;19.37;79.14;96568.06;5072866;28;20573;-67
2022/06/25 04:58:08;;;;;;;145.02;136.35;;;;;;;19.54;77.44;96559.63;5072833;28;20549;-66
2022/06/25 05:00:33;;;;;;;136.70;128.40;;;;;;;19.54;77.19;96561.50;5072816;28;20196;-71
2022/06/25 05:02:59;;;;;;;137.95;129.32;;;;;;;19.49;77.61;96567.69;5068530;28;20205;-67
2022/06/25 05:05:24;;;;;;;152.15;143.20;;;;;;;19.51;76.93;96568.94;5072871;28;20603;-67
2022/06/25 05:07:50;;;;;;;178.65;168.52;;;;;;;20.29;73.95;96562.88;5073312;28;20197;-67
2022/06/25 05:10:15;;;;;;;186.60;175.73;;;;;;;20.46;72.79;96572.22;5072682;28;20177;-67
2022/06/25 05:15:24;;;;;;;157.48;148.75;;;;;;;19.86;75.03;96582.78;5073014;28;20528;-67
2022/06/25 05:17:50;;;;;;;190.60;180.50;;;;;;;20.11;75.32;96585.06;5072670;28;20185;-68
2022/06/25 05:20:15;;;;;;;189.02;179.13;;;;;;;20.51;73.50;96588.88;5072660;28;20642;-67
2022/06/25 05:22:40;;;;;;;180.00;170.52;;;;;;;20.80;72.22;96595.81;5072976;28;20208;-67
2022/06/25 05:25:06;;;;;;;178.25;168.43;;;;;;;20.83;72.26;96596.03;5072733;28;20189;-68
2022/06/25 05:27:32;;;;;;;158.00;149.68;;;;;;;19.99;74.55;96595.34;5072425;28;20188;-68
2022/06/25 05:29:57;;;;;;;131.88;124.88;;;;;;;20.65;71.80;96591.56;5072200;28;20527;-68
2022/06/25 05:32:23;;;;;;;133.85;126.85;;;;;;;20.84;72.17;96594.16;5072357;28;20264;-68
2022/06/25 05:34:48;;;;;;;126.30;119.80;;;;;;;20.96;70.24;96589.09;5072587;28;20196;-68
2022/06/25 05:37:14;;;;;;;121.40;114.88;;;;;;;20.35;73.56;96595.56;5072986;28;20177;-68
2022/06/25 05:39:40;;;;;;;142.65;135.20;;;;;;;21.29;70.02;96590.56;5052851;28;20225;-68
2022/06/25 05:42:05;;;;;;;134.82;127.63;;;;;;;22.06;68.04;96590.44;5072118;28;20295;-70
2022/06/25 05:44:31;;;;;;;141.50;134.20;;;;;;;22.08;67.36;96588.22;5072259;28;20589;-69
2022/06/25 05:46:56;;;;;;;145.52;137.90;;;;;;;21.54;69.73;96595.34;5071947;28;20205;-68
2022/06/25 05:49:21;;;;;;;154.95;146.77;;;;;;;21.94;67.84;96592.81;5071929;28;20197;-68
2022/06/25 05:51:47;;;;;;;145.77;138.13;;;;;;;22.00;67.91;96601.53;5072820;28;20242;-68
2022/06/25 05:54:12;;;;;;;138.93;131.68;;;;;;;22.02;67.63;96602.00;5071557;28;20192;-68
2022/06/25 05:56:38;;;;;;;222.82;210.85;;;;;;;21.73;67.75;96603.19;5071915;28;20276;-68
2022/06/25 05:59:03;;;;;;;148.63;140.80;;;;;;;21.62;69.24;96601.06;5072203;28;20238;-68
2022/06/25 06:01:28;;;;;;;157.65;149.25;;;;;;;21.62;69.69;96607.19;5071042;28;20280;-72
2022/06/25 06:03:54;;;;;;;155.95;147.65;;;;;;;21.80;69.56;96613.44;5074158;28;20250;-72
2022/06/25 06:06:19;;;;;;;159.88;151.32;;;;;;;21.76;69.76;96617.81;5075348;28;20238;-72
2022/06/25 06:08:44;;;;;;;159.02;150.48;;;;;;;21.41;71.73;96611.38;5076557;28;20250;-72
2022/06/25 06:11:10;;;;;;;161.90;153.35;;;;;;;21.92;69.43;96619.81;5076385;28;20213;-72
2022/06/25 06:13:35;;;;;;;159.68;151.25;;;;;;;21.93;69.05;96615.28;5076381;28;20643;-72
2022/06/25 06:16:01;;;;;;;158.18;149.75;;;;;;;21.62;69.59;96625.88;5076466;28;20181;-72
2022/06/25 06:18:26;;;;;;;167.27;158.23;;;;;;;21.88;69.64;96631.41;5076538;28;20185;-71
2022/06/25 06:20:51;;;;;;;168.27;159.07;;;;;;;22.22;69.33;96629.00;5075964;28;20642;-70
2022/06/25 06:23:17;;;;;;;165.27;156.48;;;;;;;21.91;70.15;96628.91;5077015;28;20240;-73
2022/06/25 06:25:42;;;;;;;187.13;177.05;;;;;;;22.23;68.14;96627.13;5076841;28;20182;-73
2022/06/25 06:28:07;;;;;;;265.58;250.90;;;;;;;22.27;67.55;96628.09;5076320;28;20191;-72
2022/06/25 06:30:33;;;;;;;341.33;322.15;;;;;;;22.88;66.30;96629.22;5075988;28;20619;-73
2022/06/25 06:32:58;;;;;;;450.17;423.30;;;;;;;23.50;63.78;96629.88;5075816;28;20227;-73
2022/06/25 06:35:23;;;;;;;490.23;461.40;;;;;;;23.70;63.02;96625.78;5076104;28;20189;-74
2022/06/25 06:37:49;;;;;;;479.25;451.40;;;;;;;22.95;64.45;96637.59;5077317;28;20181;-74
2022/06/25 06:40:15;;;;;;;412.00;387.55;;;;;;;23.50;62.90;96640.59;5074611;28;20271;-73
2022/06/25 06:42:41;;;;;;;278.73;263.33;;;;;;;23.54;62.32;96631.63;5075560;28;20236;-74
2022/06/25 06:45:07;;;;;;;248.60;235.00;;;;;;;23.37;63.44;96636.13;5075899;28;20221;-73
2022/06/25 06:47:32;;;;;;;234.85;222.15;;;;;;;23.04;65.13;96628.47;5075944;28;20258;-76
2022/06/25 06:49:57;;;;;;;211.32;199.95;;;;;;;23.98;61.68;96632.41;5076232;28;20186;-73
2022/06/25 06:52:23;;;;;;;201.20;190.52;;;;;;;24.02;60.79;96631.47;5076531;28;20200;-72
2022/06/25 06:54:48;;;;;;;197.20;186.70;;;;;;;24.15;60.62;96629.72;5057872;28;20243;-72
2022/06/25 06:57:14;;;;;;;139.32;131.52;;;;;;;24.24;59.13;96643.16;5075275;28;20185;-71
2022/06/25 06:59:40;;;;;;;122.97;116.15;;;;;;;23.93;60.42;96637.94;5075170;28;20182;-76
2022/06/25 07:02:06;;;;;;;141.75;134.02;;;;;;;24.07;58.69;96635.09;5070680;28;20246;-74
2022/06/25 07:04:32;;;;;;;114.40;108.25;;;;;;;23.97;59.68;96636.97;5075496;28;20634;-73
2022/06/25 07:06:57;;;;;;;115.68;109.53;;;;;;;24.17;57.98;96637.44;5057634;28;20284;-73
2022/06/25 07:09:23;;;;;;;136.90;129.27;;;;;;;24.41;56.88;96627.00;5056877;28;20280;-74
2022/06/25 07:11:48;;;;;;;131.77;124.78;;;;;;;24.14;57.72;96636.19;5075356;28;20186;-73
2022/06/25 07:14:14;;;;;;;120.93;114.68;;;;;;;24.62;56.41;96635.19;5074545;28;20623;-73
2022/06/25 07:16:40;;;;;;;102.78;97.28;;;;;;;24.50;56.36;96632.38;5057614;28;20177;-73
2022/06/25 07:19:05;;;;;;;110.35;104.50;;;;;;;24.25;58.36;96631.31;5057192;28;20188;-74
2022/06/25 07:21:31;;;;;;;101.38;96.07;;;;;;;24.54;58.30;96626.03;5075122;28;20189;-72
2022/06/25 07:23:57;;;;;;;96.50;91.25;;;;;;;24.48;58.03;96624.63;5076159;28;20662;-73
2022/06/25 07:26:23;;;;;;;94.60;89.75;;;;;;;24.53;57.37;96626.34;5074989;28;20181;-74
2022/06/25 07:28:48;;;;;;;97.72;92.63;;;;;;;24.37;57.18;96623.41;5074537;28;20224;-75
2022/06/25 07:31:14;;;;;;;111.75;106.05;;;;;;;23.71;59.73;96627.38;5074848;28;20585;-73
2022/06/25 07:33:40;;;;;;;90.80;86.13;;;;;;;24.30;58.50;96620.41;5057792;28;20260;-73
2022/06/25 07:36:07;;;;;;;102.53;97.15;;;;;;;24.90;56.23;96622.19;5074598;28;20642;-71
2022/06/25 07:38:34;;;;;;;94.80;89.82;;;;;;;24.52;57.34;96619.44;5073817;28;20221;-74
2022/06/25 07:40:59;;;;;;;79.20;74.82;;;;;;;23.90;58.29;96619.84;5059104;28;20194;-70
2022/06/25 07:43:27;;;;;;;58.90;55.83;;;;;;;23.19;61.07;96621.91;5054399;28;20204;-71
2022/06/25 07:45:53;;;;;;;84.53;79.95;;;;;;;23.03;61.55;96618.09;5073225;28;20254;-73
2022/06/25 07:48:18;;;;;;;97.85;92.75;;;;;;;23.29;60.87;96623.53;5056079;28;20566;-73
2022/06/25 07:53:27;;;;;;;230.57;218.35;;;;;;;22.78;62.66;96612.38;5074606;28;20208;-73
2022/06/25 07:55:53;;;;;;;389.23;362.90;;;;;;;22.85;63.06;96616.47;5074036;28;20181;-72
2022/06/25 07:58:18;;;;;;;188.63;178.77;;;;;;;23.79;59.66;96610.53;5073838;28;20189;-72
2022/06/25 08:00:44;;;;;;;128.48;121.70;;;;;;;23.70;59.84;96610.53;5071884;28;20631;-73
2022/06/25 08:03:09;;;;;;;102.05;96.47;;;;;;;23.53;60.80;96610.50;5055701;28;20205;-73
2022/06/25 08:05:34;;;;;;;105.28;99.72;;;;;;;23.89;58.92;96602.97;5074157;28;20273;-72
2022/06/25 08:08:00;;;;;;;106.22;100.72;;;;;;;24.63;57.05;96604.59;5073925;28;20188;-73
2022/06/25 08:10:25;;;;;;;104.80;99.32;;;;;;;25.05;55.99;96602.84;5055477;28;20209;-73
2022/06/25 08:12:51;;;;;;;227.95;215.35;;;;;;;23.46;58.48;96604.84;5073263;28;20189;-73
2022/06/25 08:15:19;;;;;;;71.35;67.65;;;;;;;23.12;61.96;96605.56;5055244;28;20192;-75
2022/06/25 08:17:44;;;;;;;75.70;71.82;;;;;;;23.65;60.68;96607.22;5055578;28;20196;-73
2022/06/25 08:20:10;;;;;;;63.95;60.28;;;;;;;23.78;59.56;96601.72;5073194;28;20201;-73
2022/06/25 08:22:36;;;;;;;69.10;65.60;;;;;;;24.27;59.00;96599.63;5073413;28;20247;-73
2022/06/25 08:25:02;;;;;;;71.53;67.80;;;;;;;24.44;57.89;96600.38;5073700;28;20191;-73
2022/06/25 08:27:27;;;;;;;73.53;69.70;;;;;;;24.70;57.24;96602.19;5071975;28;20569;-66
2022/06/25 08:29:52;;;;;;;65.03;61.53;;;;;;;24.41;58.03;96598.31;5073128;28;20239;-69
2022/06/25 08:32:18;;;;;;;129.48;122.72;;;;;;;24.04;58.06;96596.34;5072843;28;20295;-65
2022/06/25 08:34:43;;;;;;;63.83;60.45;;;;;;;23.88;59.47;96597.94;5072873;28;20259;-68
2022/06/25 08:37:09;;;;;;;68.43;64.88;;;;;;;24.27;58.39;96597.75;5054575;28;20275;-67
2022/06/25 08:39:34;;;;;;;60.88;57.75;;;;;;;24.26;57.89;96590.81;5068886;28;20316;-69
2022/06/25 08:42:02;;;;;;;65.53;62.05;;;;;;;24.24;57.58;96595.69;5072766;28;20646;-68
2022/06/25 08:44:29;;;;;;;118.32;112.07;;;;;;;24.82;55.72;96591.56;5072679;28;20181;-67
2022/06/25 08:46:56;;;;;;;130.65;123.70;;;;;;;24.77;55.94;96595.22;5072192;28;20185;-68
2022/06/25 08:49:22;;;;;;;147.38;139.68;;;;;;;24.68;56.90;96591.81;5072490;28;20247;-68
2022/06/25 08:51:48;;;;;;;92.80;87.78;;;;;;;24.30;57.75;96589.06;5072488;28;20185;-68
2022/06/25 08:54:15;;;;;;;310.02;293.00;;;;;;;25.00;54.92;96590.41;5072426;28;20284;-67
2022/06/25 08:56:41;;;;;;;124.53;118.20;;;;;;;25.15;55.31;96589.06;5072104;28;20243;-68
2022/06/25 08:59:08;;;;;;;252.13;238.30;;;;;;;25.04;55.24;96593.22;5070277;28;20549;-69
2022/06/25 09:01:33;;;;;;;338.33;319.60;;;;;;;25.27;53.81;96587.25;5071789;28;20185;-67
2022/06/25 09:03:58;;;;;;;330.65;312.58;;;;;;;25.19;54.27;96580.03;5071868;28;20201;-68
2022/06/25 09:06:24;;;;;;;379.55;358.70;;;;;;;24.50;56.24;96584.91;5071549;28;20196;-67
2022/06/25 09:09:09;;;;;;;278.17;262.88;;;;;;;24.24;57.01;96576.19;5072541;28;20189;-67
2022/06/25 09:11:49;;;;;;;294.02;277.88;;;;;;;23.99;57.35;96575.09;5072020;28;20630;-68
2022/06/25 09:14:27;;;;;;;310.05;293.00;;;;;;;23.80;58.12;96572.72;5072594;28;20177;-67
2022/06/25 09:17:04;;;;;;;321.45;304.05;;;;;;;23.87;58.17;96582.97;5071933;28;20213;-68
2022/06/25 09:19:37;;;;;;;321.35;304.17;;;;;;;22.65;61.00;96577.69;5072115;28;20223;-68
2022/06/25 09:22:11;;;;;;;170.45;161.80;;;;;;;23.31;60.21;96579.31;5072746;28;20543;-68
2022/06/25 09:24:47;;;;;;;79.50;75.43;;;;;;;24.48;56.35;96575.63;5072946;28;20184;-68
2022/06/25 09:27:15;;;;;;;288.63;273.42;;;;;;;24.49;55.58;96567.25;5055511;28;20199;-68
2022/06/25 09:29:48;;;;;;;233.98;221.43;;;;;;;24.96;54.00;96575.28;5071734;28;20546;-67
2022/06/25 09:32:14;;;;;;;324.77;305.17;;;;;;;25.20;53.38;96575.44;5072824;28;20211;-67
2022/06/25 09:34:39;;;;;;;205.77;194.32;;;;;;;24.40;54.49;96567.31;5071784;28;20189;-69
2022/06/25 09:37:34;;;;;;;235.68;222.80;;;;;;;25.32;53.41;96569.38;5072740;28;20193;-66
2022/06/25 09:39:59;;;;;;;190.88;180.38;;;;;;;24.77;54.16;96567.63;5050947;28;20273;-67
2022/06/25 09:42:33;;;;;;;237.23;224.63;;;;;;;24.79;53.14;96562.72;5076143;28;20205;-67
2022/06/25 09:45:09;;;;;;;262.88;249.00;;;;;;;25.27;51.51;96571.16;5076448;28;20188;-67
2022/06/25 09:47:40;;;;;;;271.77;257.25;;;;;;;25.66;51.13;96561.09;5076558;28;20203;-67
2022/06/25 09:50:08;;;;;;;279.73;265.17;;;;;;;25.96;50.17;96559.09;5076016;28;20197;-68
2022/06/25 09:52:35;;;;;;;189.07;179.32;;;;;;;24.21;53.65;96560.72;5075879;28;20547;-69
2022/06/25 09:55:00;;;;;;;159.95;151.68;;;;;;;23.58;54.26;96562.19;5076149;28;20189;-67
2022/06/25 09:57:26;;;;;;;209.80;198.85;;;;;;;24.67;52.29;96562.63;5075871;28;20634;-68
2022/06/25 09:59:55;;;;;;;286.02;271.17;;;;;;;25.17;52.14;96555.44;5073420;28;20681;-68
2022/06/25 10:02:24;;;;;;;181.40;172.05;;;;;;;24.52;51.01;96555.88;5075611;28;20787;-68
2022/06/25 10:04:50;;;;;;;172.70;163.75;;;;;;;24.09;51.90;96563.25;5075071;28;20189;-68
2022/06/25 10:07:17;;;;;;;270.27;256.52;;;;;;;24.63;52.64;96550.97;5075505;28;20665;-68
2022/06/25 10:09:43;;;;;;;235.77;223.88;;;;;;;24.07;53.29;96550.19;5075056;28;20186;-69
2022/06/25 10:12:09;;;;;;;283.10;268.52;;;;;;;23.43;55.09;96552.72;5074471;28;20196;-67
2022/06/25 10:14:36;;;;;;;99.95;94.65;;;;;;;23.11;56.41;96548.59;5074983;28;20251;-66
2022/06/25 10:17:05;;;;;;;146.63;139.13;;;;;;;23.59;55.39;96553.84;5074245;28;20189;-67
2022/06/25 10:19:32;;;;;;;150.05;142.30;;;;;;;23.15;55.16;96543.41;5074829;28;20197;-66
2022/06/25 10:21:59;;;;;;;152.95;145.02;;;;;;;23.39;55.96;96548.31;5074682;28;20649;-67
2022/06/25 10:24:25;;;;;;;171.98;163.10;;;;;;;23.63;55.90;96543.28;5074815;28;20185;-67
2022/06/25 10:26:51;;;;;;;144.23;136.60;;;;;;;23.09;57.18;96540.09;5074804;28;20188;-66
2022/06/25 10:29:31;;;;;;;150.27;142.23;;;;;;;23.56;55.13;96535.75;5074687;28;20197;-68
2022/06/25 10:32:14;;;;;;;147.27;139.70;;;;;;;24.01;54.22;96538.84;5074340;28;20196;-67
2022/06/25 10:34:58;;;;;;;151.40;143.55;;;;;;;23.09;56.72;96533.97;5074662;28;20232;-67
2022/06/25 10:37:24;;;;;;;146.60;139.07;;;;;;;23.59;55.50;96532.44;5074819;28;20188;-66
2022/06/25 10:39:56;;;;;;;169.45;160.82;;;;;;;24.15;53.26;96530.63;5073693;28;20601;-67
2022/06/25 10:45:13;;;;;;;136.50;129.38;;;;;;;24.42;53.96;96522.19;5073596;28;20181;-67
2022/06/25 10:47:40;;;;;;;146.00;138.20;;;;;;;24.12;53.17;96522.44;5073523;28;20189;-67
2022/06/25 10:50:20;;;;;;;137.15;129.98;;;;;;;24.54;52.32;96513.47;5073319;28;20193;-67
2022/06/25 10:53:01;;;;;;;220.73;209.57;;;;;;;22.87;54.27;96520.72;5074127;28;20557;-67
2022/06/25 10:55:27;;;;;;;152.55;144.70;;;;;;;23.72;53.88;96503.16;5074043;28;20184;-67
2022/06/25 10:58:09;;;;;;;181.70;172.45;;;;;;;23.43;51.92;96511.81;5073673;28;20272;-67
2022/06/25 11:01:01;;;;;;;257.05;244.07;;;;;;;24.05;51.37;96509.53;5074172;28;20622;-67
2022/06/25 11:03:27;;;;;;;169.88;161.23;;;;;;;24.44;49.72;96511.97;5050346;28;20228;-68
2022/06/25 11:05:53;;;;;;;255.68;242.70;;;;;;;24.55;50.68;96508.91;5074127;28;20174;-68
2022/06/25 11:08:18;;;;;;;194.68;184.68;;;;;;;24.40;50.75;96502.22;5072571;28;20686;-67
2022/06/25 11:10:44;;;;;;;209.88;199.18;;;;;;;24.25;50.70;96506.19;5074584;28;20190;-68
2022/06/25 11:13:09;;;;;;;268.73;255.15;;;;;;;23.09;54.56;96507.22;5074086;28;20646;-68
2022/06/25 11:15:39;;;;;;;250.57;237.88;;;;;;;22.67;55.06;96514.84;5074097;28;20208;-68